sensor_id;sensor_type;location;lat;lon;timestamp;pressure;altitude;pressure_sealevel;temperature;humidity
38852;BME280;24605;50.092;9.182;2022-12-11T00:01:27;97277.63;;;-2.54;100.00
38852;BME280;24605;50.092;9.182;2022-12-11T00:03:55;97279.88;;;-2.49;100.00
38852;BME280;24605;50.092;9.182;2022-12-11T00:06:22;97279.34;;;-2.54;100.00
38852;BME280;24605;50.092;9.182;2022-12-11T00:08:50;97284.91;;;-2.60;100.00
38852;BME280;24605;50.092;9.182;2022-12-11T00:11:16;97256.81;;;-2.75;100.00
38852;BME280;24605;50.092;9.182;2022-12-11T00:13:43;97290.22;;;-2.89;100.00
38852;BME280;24605;50.092;9.182;2022-12-11T00:16:09;97287.25;;;-3.09;100.00
38852;BME280;24605;50.092;9.182;2022-12-11T00:18:36;97253.66;;;-3.32;100.00
38852;BME280;24605;50.092;9.182;2022-12-11T00:21:06;97300.25;;;-3.12;100.00
38852;BME280;24605;50.092;9.182;2022-12-11T00:23:34;97303.09;;;-3.17;100.00
38852;BME280;24605;50.092;9.182;2022-12-11T00:26:04;97307.75;;;-3.09;100.00
38852;BME280;24605;50.092;9.182;2022-12-11T00:28:31;97307.44;;;-3.04;100.00
38852;BME280;24605;50.092;9.182;2022-12-11T00:30:57;97309.28;;;-3.06;100.00
38852;BME280;24605;50.092;9.182;2022-12-11T00:33:25;97304.94;;;-3.19;100.00
38852;BME280;24605;50.092;9.182;2022-12-11T00:35:52;97291.56;;;-3.37;100.00
38852;BME280;24605;50.092;9.182;2022-12-11T00:38:20;97276.34;;;-3.53;100.00
38852;BME280;24605;50.092;9.182;2022-12-11T00:40:47;97237.41;;;-3.85;100.00
38852;BME280;24605;50.092;9.182;2022-12-11T00:43:14;97301.38;;;-3.43;100.00
38852;BME280;24605;50.092;9.182;2022-12-11T00:45:42;97296.09;;;-3.55;100.00
38852;BME280;24605;50.092;9.182;2022-12-11T00:48:09;97300.59;;;-3.58;100.00
38852;BME280;24605;50.092;9.182;2022-12-11T00:50:36;97291.16;;;-3.71;100.00
38852;BME280;24605;50.092;9.182;2022-12-11T00:53:03;97307.22;;;-3.69;100.00
38852;BME280;24605;50.092;9.182;2022-12-11T00:55:35;97273.91;;;-3.96;100.00
38852;BME280;24605;50.092;9.182;2022-12-11T00:58:02;97307.03;;;-3.66;100.00
38852;BME280;24605;50.092;9.182;2022-12-11T01:00:29;97280.47;;;-3.78;100.00
38852;BME280;24605;50.092;9.182;2022-12-11T01:02:56;97303.31;;;-3.47;100.00
38852;BME280;24605;50.092;9.182;2022-12-11T01:05:23;97277.78;;;-3.76;100.00
38852;BME280;24605;50.092;9.182;2022-12-11T01:07:49;97310.69;;;-3.70;100.00
38852;BME280;24605;50.092;9.182;2022-12-11T01:10:16;97322.59;;;-3.69;100.00
38852;BME280;24605;50.092;9.182;2022-12-11T01:12:54;97324.88;;;-3.64;100.00
38852;BME280;24605;50.092;9.182;2022-12-11T01:15:24;97322.25;;;-3.77;100.00
38852;BME280;24605;50.092;9.182;2022-12-11T01:17:51;97289.91;;;-3.92;100.00
38852;BME280;24605;50.092;9.182;2022-12-11T01:20:19;97316.69;;;-3.98;100.00
38852;BME280;24605;50.092;9.182;2022-12-11T01:22:46;97259.16;;;-4.20;100.00
38852;BME280;24605;50.092;9.182;2022-12-11T01:25:13;97318.97;;;-3.94;100.00
38852;BME280;24605;50.092;9.182;2022-12-11T01:27:39;97317.06;;;-3.90;100.00
38852;BME280;24605;50.092;9.182;2022-12-11T01:30:08;97301.69;;;-3.90;100.00
38852;BME280;24605;50.092;9.182;2022-12-11T01:32:35;97285.38;;;-4.16;100.00
38852;BME280;24605;50.092;9.182;2022-12-11T01:35:02;97309.56;;;-3.93;100.00
38852;BME280;24605;50.092;9.182;2022-12-11T01:37:29;97303.81;;;-3.97;100.00
38852;BME280;24605;50.092;9.182;2022-12-11T01:39:56;97305.50;;;-3.83;100.00
38852;BME280;24605;50.092;9.182;2022-12-11T01:42:22;97302.38;;;-3.73;100.00
38852;BME280;24605;50.092;9.182;2022-12-11T01:45:25;97304.53;;;-3.80;100.00
38852;BME280;24605;50.092;9.182;2022-12-11T01:47:56;97297.94;;;-3.84;100.00
38852;BME280;24605;50.092;9.182;2022-12-11T01:50:25;97299.13;;;-3.75;100.00
38852;BME280;24605;50.092;9.182;2022-12-11T01:52:52;97292.47;;;-3.92;100.00
38852;BME280;24605;50.092;9.182;2022-12-11T01:55:19;97299.97;;;-3.89;100.00
38852;BME280;24605;50.092;9.182;2022-12-11T01:57:48;97297.75;;;-3.81;100.00
38852;BME280;24605;50.092;9.182;2022-12-11T02:00:17;97303.97;;;-3.85;100.00
38852;BME280;24605;50.092;9.182;2022-12-11T02:02:44;97318.41;;;-3.84;100.00
38852;BME280;24605;50.092;9.182;2022-12-11T02:05:13;97310.09;;;-3.88;100.00
38852;BME280;24605;50.092;9.182;2022-12-11T02:07:42;97310.72;;;-3.84;100.00
38852;BME280;24605;50.092;9.182;2022-12-11T02:10:10;97306.56;;;-4.00;100.00
38852;BME280;24605;50.092;9.182;2022-12-11T02:12:41;97315.69;;;-3.81;100.00
38852;BME280;24605;50.092;9.182;2022-12-11T02:15:19;97312.91;;;-3.78;100.00
38852;BME280;24605;50.092;9.182;2022-12-11T02:17:50;97313.25;;;-3.70;100.00
38852;BME280;24605;50.092;9.182;2022-12-11T02:20:22;97321.16;;;-3.73;100.00
38852;BME280;24605;50.092;9.182;2022-12-11T02:23:08;97319.25;;;-3.84;100.00
38852;BME280;24605;50.092;9.182;2022-12-11T02:25:47;97313.28;;;-3.84;100.00
38852;BME280;24605;50.092;9.182;2022-12-11T02:28:20;97311.47;;;-3.82;100.00
38852;BME280;24605;50.092;9.182;2022-12-11T02:30:51;97314.06;;;-3.97;100.00
38852;BME280;24605;50.092;9.182;2022-12-11T02:33:23;97321.72;;;-3.82;100.00
38852;BME280;24605;50.092;9.182;2022-12-11T02:35:52;97309.34;;;-3.75;100.00
38852;BME280;24605;50.092;9.182;2022-12-11T02:38:23;97306.59;;;-3.72;100.00
38852;BME280;24605;50.092;9.182;2022-12-11T02:40:52;97312.34;;;-3.69;100.00
38852;BME280;24605;50.092;9.182;2022-12-11T02:43:22;97317.31;;;-3.80;100.00
38852;BME280;24605;50.092;9.182;2022-12-11T02:45:49;97318.53;;;-3.58;100.00
38852;BME280;24605;50.092;9.182;2022-12-11T02:48:18;97319.56;;;-3.61;100.00
38852;BME280;24605;50.092;9.182;2022-12-11T02:50:47;97324.69;;;-3.61;100.00
38852;BME280;24605;50.092;9.182;2022-12-11T02:53:18;97311.59;;;-3.56;100.00
38852;BME280;24605;50.092;9.182;2022-12-11T02:55:46;97313.75;;;-3.50;100.00
38852;BME280;24605;50.092;9.182;2022-12-11T02:58:17;97317.91;;;-3.62;100.00
38852;BME280;24605;50.092;9.182;2022-12-11T03:00:46;97319.44;;;-3.59;100.00
38852;BME280;24605;50.092;9.182;2022-12-11T03:03:13;97295.94;;;-3.79;100.00
38852;BME280;24605;50.092;9.182;2022-12-11T03:05:41;97317.78;;;-3.46;100.00
38852;BME280;24605;50.092;9.182;2022-12-11T03:08:08;97311.44;;;-3.68;100.00
38852;BME280;24605;50.092;9.182;2022-12-11T03:10:34;97315.06;;;-3.57;100.00
38852;BME280;24605;50.092;9.182;2022-12-11T03:13:01;97311.41;;;-3.53;100.00
38852;BME280;24605;50.092;9.182;2022-12-11T03:15:34;97274.66;;;-3.94;100.00
38852;BME280;24605;50.092;9.182;2022-12-11T03:18:11;97317.34;;;-3.53;100.00
38852;BME280;24605;50.092;9.182;2022-12-11T03:20:40;97317.44;;;-3.54;100.00
38852;BME280;24605;50.092;9.182;2022-12-11T03:23:15;97315.34;;;-3.35;100.00
38852;BME280;24605;50.092;9.182;2022-12-11T03:25:51;97312.06;;;-3.37;100.00
38852;BME280;24605;50.092;9.182;2022-12-11T03:28:21;97313.03;;;-3.52;100.00
38852;BME280;24605;50.092;9.182;2022-12-11T03:30:52;97313.41;;;-3.58;100.00
38852;BME280;24605;50.092;9.182;2022-12-11T03:33:23;97307.16;;;-3.67;100.00
38852;BME280;24605;50.092;9.182;2022-12-11T03:35:54;97279.19;;;-3.85;100.00
38852;BME280;24605;50.092;9.182;2022-12-11T03:38:23;97275.91;;;-3.87;100.00
38852;BME280;24605;50.092;9.182;2022-12-11T03:40:55;97300.44;;;-3.70;100.00
38852;BME280;24605;50.092;9.182;2022-12-11T03:43:24;97307.47;;;-3.59;100.00
38852;BME280;24605;50.092;9.182;2022-12-11T03:45:52;97296.06;;;-3.68;100.00
38852;BME280;24605;50.092;9.182;2022-12-11T03:48:22;97300.75;;;-3.47;100.00
38852;BME280;24605;50.092;9.182;2022-12-11T03:50:50;97303.31;;;-3.47;100.00
38852;BME280;24605;50.092;9.182;2022-12-11T03:53:18;97307.53;;;-3.46;100.00
38852;BME280;24605;50.092;9.182;2022-12-11T03:55:47;97305.69;;;-3.44;100.00
38852;BME280;24605;50.092;9.182;2022-12-11T03:58:14;97307.34;;;-3.30;100.00
38852;BME280;24605;50.092;9.182;2022-12-11T04:00:41;97309.28;;;-3.06;100.00
38852;BME280;24605;50.092;9.182;2022-12-11T04:03:07;97313.28;;;-3.02;100.00
38852;BME280;24605;50.092;9.182;2022-12-11T04:05:46;97310.09;;;-3.06;100.00
38852;BME280;24605;50.092;9.182;2022-12-11T04:08:12;97309.03;;;-3.16;100.00
38852;BME280;24605;50.092;9.182;2022-12-11T04:10:40;97299.91;;;-3.20;100.00
38852;BME280;24605;50.092;9.182;2022-12-11T04:13:07;97291.72;;;-3.12;100.00
38852;BME280;24605;50.092;9.182;2022-12-11T04:15:34;97296.34;;;-3.05;100.00
38852;BME280;24605;50.092;9.182;2022-12-11T04:18:00;97288.06;;;-2.95;100.00
38852;BME280;24605;50.092;9.182;2022-12-11T04:20:45;97291.84;;;-3.01;100.00
38852;BME280;24605;50.092;9.182;2022-12-11T04:23:29;97296.34;;;-3.05;100.00
38852;BME280;24605;50.092;9.182;2022-12-11T04:26:16;97294.69;;;-3.19;100.00
38852;BME280;24605;50.092;9.182;2022-12-11T04:28:44;97297.13;;;-3.17;100.00
38852;BME280;24605;50.092;9.182;2022-12-11T04:31:13;97305.16;;;-3.22;100.00
38852;BME280;24605;50.092;9.182;2022-12-11T04:33:39;97286.06;;;-3.18;100.00
38852;BME280;24605;50.092;9.182;2022-12-11T04:36:09;97277.25;;;-3.26;100.00
38852;BME280;24605;50.092;9.182;2022-12-11T04:38:35;97292.56;;;-3.12;100.00
38852;BME280;24605;50.092;9.182;2022-12-11T04:41:04;97296.63;;;-3.22;100.00
38852;BME280;24605;50.092;9.182;2022-12-11T04:43:31;97243.84;;;-3.52;100.00
38852;BME280;24605;50.092;9.182;2022-12-11T04:46:01;97299.03;;;-3.06;100.00
38852;BME280;24605;50.092;9.182;2022-12-11T04:48:28;97301.50;;;-2.92;100.00
38852;BME280;24605;50.092;9.182;2022-12-11T04:50:55;97309.59;;;-2.98;100.00
38852;BME280;24605;50.092;9.182;2022-12-11T04:53:23;97307.34;;;-3.03;100.00
38852;BME280;24605;50.092;9.182;2022-12-11T04:55:49;97296.59;;;-2.82;100.00
38852;BME280;24605;50.092;9.182;2022-12-11T04:58:16;97301.50;;;-2.92;100.00
38852;BME280;24605;50.092;9.182;2022-12-11T05:00:43;97288.78;;;-2.93;100.00
38852;BME280;24605;50.092;9.182;2022-12-11T05:03:09;97291.88;;;-2.88;100.00
38852;BME280;24605;50.092;9.182;2022-12-11T05:05:36;97297.84;;;-2.88;100.00
38852;BME280;24605;50.092;9.182;2022-12-11T05:08:03;97297.91;;;-3.02;100.00
38852;BME280;24605;50.092;9.182;2022-12-11T05:10:31;97284.78;;;-2.97;100.00
38852;BME280;24605;50.092;9.182;2022-12-11T05:12:57;97295.34;;;-2.89;100.00
38852;BME280;24605;50.092;9.182;2022-12-11T05:15:23;97296.97;;;-3.01;100.00
38852;BME280;24605;50.092;9.182;2022-12-11T05:17:50;97277.91;;;-3.10;100.00
38852;BME280;24605;50.092;9.182;2022-12-11T05:20:17;97297.91;;;-3.02;100.00
38852;BME280;24605;50.092;9.182;2022-12-11T05:22:43;97293.69;;;-3.03;100.00
38852;BME280;24605;50.092;9.182;2022-12-11T05:25:10;97291.03;;;-3.02;100.00
38852;BME280;24605;50.092;9.182;2022-12-11T05:27:37;97288.19;;;-2.97;100.00
38852;BME280;24605;50.092;9.182;2022-12-11T05:30:05;97283.84;;;-2.96;100.00
38852;BME280;24605;50.092;9.182;2022-12-11T05:32:32;97287.16;;;-2.94;100.00
38852;BME280;24605;50.092;9.182;2022-12-11T05:34:58;97287.75;;;-2.91;100.00
38852;BME280;24605;50.092;9.182;2022-12-11T05:37:24;97261.69;;;-2.97;100.00
38852;BME280;24605;50.092;9.182;2022-12-11T05:39:51;97280.25;;;-3.07;100.00
38852;BME280;24605;50.092;9.182;2022-12-11T05:42:18;97261.63;;;-3.36;100.00
38852;BME280;24605;50.092;9.182;2022-12-11T05:44:45;97286.38;;;-3.22;100.00
38852;BME280;24605;50.092;9.182;2022-12-11T05:47:14;97292.72;;;-3.28;100.00
38852;BME280;24605;50.092;9.182;2022-12-11T05:49:40;97285.56;;;-3.23;100.00
38852;BME280;24605;50.092;9.182;2022-12-11T05:52:07;97285.34;;;-3.20;100.00
38852;BME280;24605;50.092;9.182;2022-12-11T05:54:34;97281.09;;;-3.34;100.00
38852;BME280;24605;50.092;9.182;2022-12-11T05:57:00;97271.28;;;-3.27;100.00
38852;BME280;24605;50.092;9.182;2022-12-11T05:59:26;97281.25;;;-3.22;100.00
38852;BME280;24605;50.092;9.182;2022-12-11T06:01:54;97278.16;;;-3.27;100.00
38852;BME280;24605;50.092;9.182;2022-12-11T06:04:21;97255.06;;;-3.40;100.00
38852;BME280;24605;50.092;9.182;2022-12-11T06:06:47;97268.88;;;-3.03;100.00
38852;BME280;24605;50.092;9.182;2022-12-11T06:09:14;97260.78;;;-2.96;100.00
38852;BME280;24605;50.092;9.182;2022-12-11T06:11:41;97249.72;;;-2.84;100.00
38852;BME280;24605;50.092;9.182;2022-12-11T06:14:09;97256.56;;;-2.97;100.00
38852;BME280;24605;50.092;9.182;2022-12-11T06:16:37;97258.53;;;-2.88;100.00
38852;BME280;24605;50.092;9.182;2022-12-11T06:19:05;97261.63;;;-2.83;100.00
38852;BME280;24605;50.092;9.182;2022-12-11T06:21:32;97249.28;;;-2.52;100.00
38852;BME280;24605;50.092;9.182;2022-12-11T06:24:00;97236.03;;;-2.59;100.00
38852;BME280;24605;50.092;9.182;2022-12-11T06:26:28;97257.84;;;-2.64;100.00
38852;BME280;24605;50.092;9.182;2022-12-11T06:28:54;97262.22;;;-2.41;100.00
38852;BME280;24605;50.092;9.182;2022-12-11T06:31:21;97268.47;;;-2.45;100.00
38852;BME280;24605;50.092;9.182;2022-12-11T06:33:47;97243.06;;;-2.74;100.00
38852;BME280;24605;50.092;9.182;2022-12-11T06:36:17;97265.53;;;-2.64;100.00
38852;BME280;24605;50.092;9.182;2022-12-11T06:38:44;97268.28;;;-2.80;100.00
38852;BME280;24605;50.092;9.182;2022-12-11T06:41:11;97272.19;;;-2.88;100.00
38852;BME280;24605;50.092;9.182;2022-12-11T06:43:39;97275.88;;;-2.79;100.00
38852;BME280;24605;50.092;9.182;2022-12-11T06:46:08;97284.59;;;-2.81;100.00
38852;BME280;24605;50.092;9.182;2022-12-11T06:48:36;97278.97;;;-2.87;100.00
38852;BME280;24605;50.092;9.182;2022-12-11T06:51:06;97271.34;;;-2.88;100.00
38852;BME280;24605;50.092;9.182;2022-12-11T06:53:34;97274.44;;;-2.96;100.00
38852;BME280;24605;50.092;9.182;2022-12-11T06:56:02;97249.69;;;-3.10;100.00
38852;BME280;24605;50.092;9.182;2022-12-11T06:58:29;97268.28;;;-2.80;100.00
38852;BME280;24605;50.092;9.182;2022-12-11T07:00:56;97261.69;;;-2.97;100.00
38852;BME280;24605;50.092;9.182;2022-12-11T07:03:22;97268.59;;;-2.72;100.00
38852;BME280;24605;50.092;9.182;2022-12-11T07:05:49;97271.28;;;-2.74;100.00
38852;BME280;24605;50.092;9.182;2022-12-11T07:08:15;97271.78;;;-2.69;100.00
38852;BME280;24605;50.092;9.182;2022-12-11T07:10:43;97271.88;;;-2.83;100.00
38852;BME280;24605;50.092;9.182;2022-12-11T07:13:09;97278.09;;;-3.13;100.00
38852;BME280;24605;50.092;9.182;2022-12-11T07:15:36;97266.75;;;-3.36;100.00
38852;BME280;24605;50.092;9.182;2022-12-11T07:18:03;97270.88;;;-3.21;100.00
38852;BME280;24605;50.092;9.182;2022-12-11T07:20:29;97276.75;;;-3.19;100.00
38852;BME280;24605;50.092;9.182;2022-12-11T07:22:55;97273.38;;;-3.19;100.00
38852;BME280;24605;50.092;9.182;2022-12-11T07:25:22;97269.31;;;-2.96;100.00
38852;BME280;24605;50.092;9.182;2022-12-11T07:27:50;97266.50;;;-3.06;100.00
38852;BME280;24605;50.092;9.182;2022-12-11T07:30:16;97274.47;;;-3.23;100.00
38852;BME280;24605;50.092;9.182;2022-12-11T07:32:43;97271.31;;;-3.14;100.00
38852;BME280;24605;50.092;9.182;2022-12-11T07:35:09;97268.31;;;-3.21;100.00
38852;BME280;24605;50.092;9.182;2022-12-11T07:37:39;97276.00;;;-3.21;100.00
38852;BME280;24605;50.092;9.182;2022-12-11T07:40:07;97279.72;;;-3.12;100.00
38852;BME280;24605;50.092;9.182;2022-12-11T07:42:34;97276.75;;;-3.06;100.00
38852;BME280;24605;50.092;9.182;2022-12-11T07:45:01;97280.66;;;-3.13;100.00
38852;BME280;24605;50.092;9.182;2022-12-11T07:47:28;97278.38;;;-3.31;100.00
38852;BME280;24605;50.092;9.182;2022-12-11T07:49:55;97272.13;;;-3.26;100.00
38852;BME280;24605;50.092;9.182;2022-12-11T07:52:21;97284.25;;;-3.03;100.00
38852;BME280;24605;50.092;9.182;2022-12-11T07:54:48;97278.97;;;-2.87;100.00
38852;BME280;24605;50.092;9.182;2022-12-11T07:57:15;97281.00;;;-2.92;100.00
38852;BME280;24605;50.092;9.182;2022-12-11T07:59:41;97252.25;;;-3.23;100.00
38852;BME280;24605;50.092;9.182;2022-12-11T08:02:10;97285.31;;;-2.92;100.00
38852;BME280;24605;50.092;9.182;2022-12-11T08:04:37;97288.38;;;-3.00;100.00
38852;BME280;24605;50.092;9.182;2022-12-11T08:07:04;97280.59;;;-2.73;100.00
38852;BME280;24605;50.092;9.182;2022-12-11T08:09:30;97273.91;;;-2.75;100.00
38852;BME280;24605;50.092;9.182;2022-12-11T08:11:57;97280.56;;;-2.86;100.00
38852;BME280;24605;50.092;9.182;2022-12-11T08:14:24;97274.63;;;-2.99;100.00
38852;BME280;24605;50.092;9.182;2022-12-11T08:16:50;97284.91;;;-2.60;100.00
38852;BME280;24605;50.092;9.182;2022-12-11T08:19:18;97290.75;;;-2.58;100.00
38852;BME280;24605;50.092;9.182;2022-12-11T08:21:44;97293.75;;;-2.52;100.00
38852;BME280;24605;50.092;9.182;2022-12-11T08:24:11;97296.28;;;-2.77;100.00
38852;BME280;24605;50.092;9.182;2022-12-11T08:26:40;97290.84;;;-2.73;100.00
38852;BME280;24605;50.092;9.182;2022-12-11T08:29:07;97296.69;;;-2.71;100.00
38852;BME280;24605;50.092;9.182;2022-12-11T08:31:33;97297.41;;;-3.35;100.00
38852;BME280;24605;50.092;9.182;2022-12-11T08:34:00;97292.88;;;-3.04;100.00
38852;BME280;24605;50.092;9.182;2022-12-11T08:36:28;97293.91;;;-3.06;100.00
38852;BME280;24605;50.092;9.182;2022-12-11T08:38:55;97244.34;;;-3.20;100.00
38852;BME280;24605;50.092;9.182;2022-12-11T08:41:23;97287.97;;;-2.94;100.00
38852;BME280;24605;50.092;9.182;2022-12-11T08:43:50;97286.84;;;-2.90;100.00
38852;BME280;24605;50.092;9.182;2022-12-11T08:46:19;97288.19;;;-2.84;100.00
38852;BME280;24605;50.092;9.182;2022-12-11T08:48:46;97290.75;;;-2.71;100.00
38852;BME280;24605;50.092;9.182;2022-12-11T08:51:14;97291.56;;;-2.71;100.00
38852;BME280;24605;50.092;9.182;2022-12-11T08:53:42;97287.34;;;-2.85;100.00
38852;BME280;24605;50.092;9.182;2022-12-11T08:56:11;97283.97;;;-2.72;100.00
38852;BME280;24605;50.092;9.182;2022-12-11T08:58:37;97280.28;;;-2.68;100.00
38852;BME280;24605;50.092;9.182;2022-12-11T09:01:08;97297.91;;;-2.38;100.00
38852;BME280;24605;50.092;9.182;2022-12-11T09:03:35;97277.00;;;-2.31;100.00
38852;BME280;24605;50.092;9.182;2022-12-11T09:06:03;97292.47;;;-2.20;100.00
38852;BME280;24605;50.092;9.182;2022-12-11T09:08:31;97293.16;;;-2.05;100.00
38852;BME280;24605;50.092;9.182;2022-12-11T09:11:03;97288.16;;;-2.19;100.00
38852;BME280;24605;50.092;9.182;2022-12-11T09:13:29;97287.69;;;-2.00;100.00
38852;BME280;24605;50.092;9.182;2022-12-11T09:15:56;97290.84;;;-2.21;100.00
38852;BME280;24605;50.092;9.182;2022-12-11T09:18:22;97285.06;;;-2.12;100.00
38852;BME280;24605;50.092;9.182;2022-12-11T09:20:57;97279.50;;;-2.06;100.00
38852;BME280;24605;50.092;9.182;2022-12-11T09:23:23;97290.63;;;-1.81;100.00
38852;BME280;24605;50.092;9.182;2022-12-11T09:25:50;97275.53;;;-1.85;100.00
38852;BME280;24605;50.092;9.182;2022-12-11T09:28:17;97282.13;;;-1.81;100.00
38852;BME280;24605;50.092;9.182;2022-12-11T09:30:44;97286.56;;;-1.59;100.00
38852;BME280;24605;50.092;9.182;2022-12-11T09:33:10;97270.97;;;-1.69;100.00
38852;BME280;24605;50.092;9.182;2022-12-11T09:35:37;97291.41;;;-1.67;100.00
38852;BME280;24605;50.092;9.182;2022-12-11T09:38:03;97274.19;;;-1.78;100.00
38852;BME280;24605;50.092;9.182;2022-12-11T09:40:30;97273.19;;;-1.89;100.00
38852;BME280;24605;50.092;9.182;2022-12-11T09:43:01;97301.03;;;-1.82;100.00
38852;BME280;24605;50.092;9.182;2022-12-11T09:45:30;97280.84;;;-1.76;100.00
38852;BME280;24605;50.092;9.182;2022-12-11T09:47:56;97294.41;;;-1.74;100.00
38852;BME280;24605;50.092;9.182;2022-12-11T09:50:26;97295.31;;;-1.99;100.00
38852;BME280;24605;50.092;9.182;2022-12-11T09:53:02;97283.47;;;-1.64;100.00
38852;BME280;24605;50.092;9.182;2022-12-11T09:55:35;97292.84;;;-1.39;100.00
38852;BME280;24605;50.092;9.182;2022-12-11T09:58:12;97289.00;;;-1.58;100.00
38852;BME280;24605;50.092;9.182;2022-12-11T10:00:46;97283.03;;;-1.58;100.00
38852;BME280;24605;50.092;9.182;2022-12-11T10:03:39;97283.38;;;-1.87;100.00
38852;BME280;24605;50.092;9.182;2022-12-11T10:06:14;97278.84;;;-1.83;100.00
38852;BME280;24605;50.092;9.182;2022-12-11T10:08:52;97286.31;;;-2.17;100.00
38852;BME280;24605;50.092;9.182;2022-12-11T10:11:42;97279.00;;;-2.11;100.00
38852;BME280;24605;50.092;9.182;2022-12-11T10:14:18;97282.25;;;-1.96;100.00
38852;BME280;24605;50.092;9.182;2022-12-11T10:16:51;97255.69;;;-2.08;100.00
38852;BME280;24605;50.092;9.182;2022-12-11T10:19:20;97276.06;;;-1.93;100.00
38852;BME280;24605;50.092;9.182;2022-12-11T10:21:48;97269.88;;;-1.78;100.00
38852;BME280;24605;50.092;9.182;2022-12-11T10:24:19;97246.78;;;-1.66;100.00
38852;BME280;24605;50.092;9.182;2022-12-11T10:26:53;97265.16;;;-1.60;100.00
38852;BME280;24605;50.092;9.182;2022-12-11T10:29:22;97263.97;;;-1.67;100.00
38852;BME280;24605;50.092;9.182;2022-12-11T10:31:53;97270.75;;;-1.42;100.00
38852;BME280;24605;50.092;9.182;2022-12-11T10:34:27;97264.19;;;-1.46;100.00
38852;BME280;24605;50.092;9.182;2022-12-11T10:36:57;97244.72;;;-1.37;100.00
38852;BME280;24605;50.092;9.182;2022-12-11T10:39:23;97254.53;;;-1.31;100.00
38852;BME280;24605;50.092;9.182;2022-12-11T10:41:51;97256.88;;;-1.28;100.00
38852;BME280;24605;50.092;9.182;2022-12-11T10:44:20;97242.03;;;-1.35;100.00
38852;BME280;24605;50.092;9.182;2022-12-11T10:46:48;97240.50;;;-1.38;100.00
38852;BME280;24605;50.092;9.182;2022-12-11T10:49:23;97242.63;;;-1.56;100.00
38852;BME280;24605;50.092;9.182;2022-12-11T10:51:51;97244.00;;;-1.63;100.00
38852;BME280;24605;50.092;9.182;2022-12-11T10:54:29;97235.22;;;-1.72;100.00
38852;BME280;24605;50.092;9.182;2022-12-11T10:56:56;97237.81;;;-1.85;100.00
38852;BME280;24605;50.092;9.182;2022-12-11T10:59:34;97205.97;;;-2.07;100.00
38852;BME280;24605;50.092;9.182;2022-12-11T11:02:02;97226.19;;;-1.78;100.00
38852;BME280;24605;50.092;9.182;2022-12-11T11:04:34;97206.44;;;-2.01;100.00
38852;BME280;24605;50.092;9.182;2022-12-11T11:07:09;97214.88;;;-1.99;100.00
38852;BME280;24605;50.092;9.182;2022-12-11T11:09:38;97212.81;;;-1.94;100.00
38852;BME280;24605;50.092;9.182;2022-12-11T11:12:17;97218.22;;;-1.86;100.00
38852;BME280;24605;50.092;9.182;2022-12-11T11:14:59;97189.91;;;-1.97;100.00
38852;BME280;24605;50.092;9.182;2022-12-11T11:17:26;97227.72;;;-1.51;100.00
38852;BME280;24605;50.092;9.182;2022-12-11T11:19:55;97199.28;;;-1.61;100.00
38852;BME280;24605;50.092;9.182;2022-12-11T11:22:23;97216.34;;;-1.24;100.00
38852;BME280;24605;50.092;9.182;2022-12-11T11:24:52;97214.28;;;-1.07;100.00
38852;BME280;24605;50.092;9.182;2022-12-11T11:27:27;97218.19;;;-0.79;100.00
38852;BME280;24605;50.092;9.182;2022-12-11T11:29:56;97165.28;;;-1.29;100.00
38852;BME280;24605;50.092;9.182;2022-12-11T11:32:29;97214.63;;;-1.01;100.00
38852;BME280;24605;50.092;9.182;2022-12-11T11:35:15;97217.09;;;-0.99;100.00
38852;BME280;24605;50.092;9.182;2022-12-11T11:37:45;97205.56;;;-1.29;100.00
38852;BME280;24605;50.092;9.182;2022-12-11T11:40:18;97196.69;;;-1.36;100.00
38852;BME280;24605;50.092;9.182;2022-12-11T11:42:48;97202.03;;;-1.51;100.00
38852;BME280;24605;50.092;9.182;2022-12-11T11:45:21;97202.03;;;-1.39;100.00
38852;BME280;24605;50.092;9.182;2022-12-11T11:47:57;97196.88;;;-1.51;100.00
38852;BME280;24605;50.092;9.182;2022-12-11T11:50:31;97180.41;;;-1.48;100.00
38852;BME280;24605;50.092;9.182;2022-12-11T11:53:02;97202.38;;;-1.44;100.00
38852;BME280;24605;50.092;9.182;2022-12-11T11:55:37;97185.56;;;-1.73;100.00
38852;BME280;24605;50.092;9.182;2022-12-11T11:58:08;97204.94;;;-1.55;100.00
38852;BME280;24605;50.092;9.182;2022-12-11T12:00:39;97203.91;;;-1.42;100.00
38852;BME280;24605;50.092;9.182;2022-12-11T12:03:08;97199.72;;;-1.43;100.00
38852;BME280;24605;50.092;9.182;2022-12-11T12:05:40;97195.31;;;-1.18;100.00
38852;BME280;24605;50.092;9.182;2022-12-11T12:08:14;97176.72;;;-1.21;100.00
38852;BME280;24605;50.092;9.182;2022-12-11T12:10:47;97192.97;;;-1.21;100.00
38852;BME280;24605;50.092;9.182;2022-12-11T12:13:23;97190.16;;;-1.29;100.00
38852;BME280;24605;50.092;9.182;2022-12-11T12:15:55;97193.13;;;-1.47;100.00
38852;BME280;24605;50.092;9.182;2022-12-11T12:18:27;97195.44;;;-1.55;100.00
38852;BME280;24605;50.092;9.182;2022-12-11T12:21:09;97196.72;;;-1.61;100.00
38852;BME280;24605;50.092;9.182;2022-12-11T12:23:55;97198.47;;;-1.61;100.00
38852;BME280;24605;50.092;9.182;2022-12-11T12:26:28;97196.81;;;-1.62;100.00
38852;BME280;24605;50.092;9.182;2022-12-11T12:29:05;97196.25;;;-1.66;100.00
38852;BME280;24605;50.092;9.182;2022-12-11T12:31:43;97194.47;;;-1.65;100.00
38852;BME280;24605;50.092;9.182;2022-12-11T12:34:20;97191.84;;;-1.52;100.00
38852;BME280;24605;50.092;9.182;2022-12-11T12:36:55;97178.56;;;-1.46;100.00
38852;BME280;24605;50.092;9.182;2022-12-11T12:39:37;97189.22;;;-1.28;100.00
38852;BME280;24605;50.092;9.182;2022-12-11T12:42:11;97188.94;;;-1.48;100.00
38852;BME280;24605;50.092;9.182;2022-12-11T12:44:46;97189.59;;;-1.21;100.00
38852;BME280;24605;50.092;9.182;2022-12-11T12:47:17;97188.53;;;-1.19;100.00
38852;BME280;24605;50.092;9.182;2022-12-11T12:49:46;97168.44;;;-1.14;100.00
38852;BME280;24605;50.092;9.182;2022-12-11T12:52:17;97187.63;;;-1.06;100.00
38852;BME280;24605;50.092;9.182;2022-12-11T12:54:46;97169.38;;;-1.15;100.00
38852;BME280;24605;50.092;9.182;2022-12-11T12:57:34;97172.56;;;-1.11;100.00
38852;BME280;24605;50.092;9.182;2022-12-11T13:00:02;97175.69;;;-1.19;100.00
38852;BME280;24605;50.092;9.182;2022-12-11T13:02:29;97170.06;;;-1.24;100.00